Caledonia, Canada
Current Conditions -  °F | °C
As of 7:00 AM on Wednesday 28 Jan 2015 (Local Time) from CYHM Reporting Station
Clear Clear  
Wind Chill: -11°   Ceiling: Unl
Heat Index:   Visibility: 15mi
Dew Point: -4°   Wind: 7mph
Humidity: 78%   Direction: 260°W
Pressure: 30.23"   Gusts: NA
Location:  43.07°N, 79.95°W
Report Text: CYHM 281200Z 26006KT 15SM SKC M17/M20 A3023 RMK SLP257
Loading
Personal Weather Stations






























Interactive Weather Map New forecast layout! Learn more

10-Day Weather Forecast

Advertisements
Track Severe Weather on mobile